createdAt,value
2022-12-31T00:00:05.236Z,8.55
2022-12-31T00:02:31.877Z,8.67
2022-12-31T00:04:58.355Z,8.67
2022-12-31T00:07:25.134Z,8.75
2022-12-31T00:09:51.469Z,8.84
2022-12-31T00:12:17.810Z,8.76
2022-12-31T00:14:44.608Z,8.74
2022-12-31T00:17:10.986Z,8.73
2022-12-31T00:19:37.407Z,8.70
2022-12-31T00:22:04.265Z,8.74
2022-12-31T00:24:31.086Z,8.83
2022-12-31T00:26:57.572Z,8.91
2022-12-31T00:29:24.545Z,8.92
2022-12-31T00:31:50.887Z,8.97
2022-12-31T00:34:17.248Z,8.99
2022-12-31T00:36:46.227Z,9.14
2022-12-31T00:39:13.158Z,9.18
2022-12-31T00:41:40.112Z,9.17
2022-12-31T00:44:06.565Z,9.23
2022-12-31T00:46:33.089Z,9.21
2022-12-31T00:49:00.087Z,9.25
2022-12-31T00:51:27.496Z,9.32
2022-12-31T00:53:55.561Z,9.38
2022-12-31T00:56:26.037Z,9.41
2022-12-31T00:58:52.708Z,9.41
2022-12-31T01:01:20.759Z,9.45
2022-12-31T01:03:49.400Z,9.51
2022-12-31T01:06:17.023Z,9.51
2022-12-31T01:08:43.871Z,9.54
2022-12-31T01:11:24.583Z,9.54
2022-12-31T01:13:54.442Z,9.53
2022-12-31T01:16:27.031Z,9.46
2022-12-31T01:18:53.845Z,9.53
2022-12-31T01:21:20.887Z,9.54
2022-12-31T01:23:48.084Z,9.61
2022-12-31T01:26:16.609Z,9.55
2022-12-31T01:28:42.961Z,9.51
2022-12-31T01:31:15.668Z,9.64
2022-12-31T01:33:42.899Z,9.57
2022-12-31T01:36:25.028Z,9.52
2022-12-31T01:38:53.096Z,9.38
2022-12-31T01:41:23.594Z,9.34
2022-12-31T01:43:57.355Z,9.24
2022-12-31T01:46:27.191Z,9.15
2022-12-31T01:48:57.945Z,9.12
2022-12-31T01:51:27.820Z,9.11
2022-12-31T01:53:54.633Z,9.21
2022-12-31T01:56:22.746Z,9.15
2022-12-31T01:58:52.399Z,9.07
2022-12-31T02:01:26.370Z,9.07
2022-12-31T02:03:54.180Z,8.98
2022-12-31T02:06:23.965Z,8.93
2022-12-31T02:08:51.398Z,8.97
2022-12-31T02:11:30.624Z,8.95
2022-12-31T02:14:03.725Z,8.90
2022-12-31T02:16:47.513Z,8.89
2022-12-31T02:19:51.669Z,9.01
2022-12-31T02:22:40.112Z,9.12
2022-12-31T02:25:40.701Z,9.07
2022-12-31T02:28:25.369Z,9.07
2022-12-31T02:31:00.931Z,9.01
2022-12-31T02:33:36.846Z,9.06
2022-12-31T02:36:10.703Z,9.02
2022-12-31T02:38:42.011Z,9.01
2022-12-31T02:41:36.342Z,8.92
2022-12-31T02:44:21.089Z,8.85
2022-12-31T02:47:00.989Z,8.97
2022-12-31T02:49:45.790Z,8.94
2022-12-31T02:52:33.663Z,8.91
2022-12-31T02:55:18.092Z,8.80
2022-12-31T02:58:43.520Z,8.89
2022-12-31T03:01:29.223Z,8.82
2022-12-31T03:04:15.704Z,8.69
2022-12-31T03:06:43.133Z,8.67
2022-12-31T03:09:15.176Z,8.70
2022-12-31T03:12:00.668Z,8.74
2022-12-31T03:14:27.036Z,8.95
2022-12-31T03:16:53.476Z,9.13
2022-12-31T03:19:38.869Z,9.08
2022-12-31T03:22:23.592Z,9.14
2022-12-31T03:25:08.712Z,9.24
2022-12-31T03:27:35.035Z,9.18
2022-12-31T03:30:01.448Z,9.15
2022-12-31T03:32:28.168Z,9.11
2022-12-31T03:34:55.786Z,9.13
2022-12-31T03:37:22.124Z,9.12
2022-12-31T03:39:48.672Z,9.16
2022-12-31T03:42:15.035Z,9.17
2022-12-31T03:44:41.355Z,9.13
2022-12-31T03:47:08.218Z,9.18
2022-12-31T03:49:34.546Z,9.26
2022-12-31T03:52:02.911Z,9.27
2022-12-31T03:54:29.828Z,9.31
2022-12-31T03:57:00.100Z,9.37
2022-12-31T03:59:26.846Z,9.44
2022-12-31T04:01:53.573Z,9.51
2022-12-31T04:04:20.114Z,9.46
2022-12-31T04:06:46.909Z,9.21
2022-12-31T04:09:13.318Z,9.14
2022-12-31T04:11:39.657Z,9.07
2022-12-31T04:14:06.433Z,8.98
2022-12-31T04:16:32.997Z,8.89
2022-12-31T04:18:59.768Z,8.88
2022-12-31T04:21:31.468Z,8.79
2022-12-31T04:24:02.100Z,8.81
2022-12-31T04:26:29.241Z,8.88
2022-12-31T04:28:55.692Z,8.81
2022-12-31T04:31:22.682Z,8.71
2022-12-31T04:33:49.034Z,8.69
2022-12-31T04:36:15.418Z,8.75
2022-12-31T04:38:42.301Z,8.78
2022-12-31T04:41:17.599Z,8.81
2022-12-31T04:43:48.088Z,8.81
2022-12-31T04:46:14.899Z,8.91
2022-12-31T04:48:41.735Z,8.96
2022-12-31T04:51:08.675Z,8.92
2022-12-31T04:53:35.087Z,9.03
2022-12-31T04:56:01.607Z,9.01
2022-12-31T04:58:28.611Z,9.02
2022-12-31T05:00:56.230Z,8.96
2022-12-31T05:03:24.882Z,8.86
2022-12-31T05:05:51.821Z,8.79
2022-12-31T05:08:18.868Z,8.70
2022-12-31T05:10:48.036Z,8.57
2022-12-31T05:13:15.392Z,8.55
2022-12-31T05:15:42.745Z,8.54
2022-12-31T05:18:09.252Z,8.53
2022-12-31T05:20:36.125Z,8.56
2022-12-31T05:23:02.516Z,8.55
2022-12-31T05:25:28.946Z,8.62
2022-12-31T05:27:55.670Z,8.63
2022-12-31T05:30:23.707Z,8.74
2022-12-31T05:32:50.102Z,8.68
2022-12-31T05:35:16.987Z,8.62
2022-12-31T05:37:43.936Z,8.52
2022-12-31T05:40:11.133Z,8.48
2022-12-31T05:42:38.156Z,8.50
2022-12-31T05:45:05.589Z,8.51
2022-12-31T05:47:32.288Z,8.40
2022-12-31T05:49:59.119Z,8.46
2022-12-31T05:52:25.459Z,8.56
2022-12-31T05:54:51.809Z,8.52
2022-12-31T05:57:18.406Z,8.59
2022-12-31T05:59:44.754Z,8.72
2022-12-31T06:02:11.108Z,8.79
2022-12-31T06:04:37.893Z,8.76
2022-12-31T06:07:04.192Z,8.91
2022-12-31T06:09:30.549Z,8.84
2022-12-31T06:11:57.460Z,8.88
2022-12-31T06:14:23.882Z,8.81
2022-12-31T06:16:50.194Z,8.83
2022-12-31T06:19:16.955Z,8.94
2022-12-31T06:21:43.316Z,9.00
2022-12-31T06:24:09.628Z,8.92
2022-12-31T06:26:37.252Z,8.89
2022-12-31T06:29:05.048Z,8.86
2022-12-31T06:31:31.500Z,8.92
2022-12-31T06:33:58.225Z,8.84
2022-12-31T06:36:24.776Z,8.90
2022-12-31T06:38:51.340Z,8.89
2022-12-31T06:41:18.911Z,9.04
2022-12-31T06:43:45.558Z,9.07
2022-12-31T06:46:14.704Z,9.08
2022-12-31T06:48:43.408Z,9.21
2022-12-31T06:51:17.456Z,9.21
2022-12-31T06:53:46.088Z,9.23
2022-12-31T06:56:31.360Z,9.16
2022-12-31T06:59:01.244Z,9.04
2022-12-31T07:01:36.383Z,9.00
2022-12-31T07:04:21.707Z,8.95
2022-12-31T07:06:59.762Z,8.89
2022-12-31T07:10:05.381Z,8.78
2022-12-31T07:12:50.383Z,8.73
2022-12-31T07:15:36.841Z,8.65
2022-12-31T07:18:07.530Z,8.55
2022-12-31T07:20:34.256Z,8.47
2022-12-31T07:23:01.148Z,8.41
2022-12-31T07:25:27.908Z,8.35
2022-12-31T07:28:14.659Z,8.29
2022-12-31T07:31:00.462Z,8.37
2022-12-31T07:33:57.045Z,8.46
2022-12-31T07:36:42.824Z,8.54
2022-12-31T07:39:12.065Z,8.64
2022-12-31T07:41:54.364Z,8.70
2022-12-31T07:44:32.913Z,8.75
2022-12-31T07:47:01.818Z,8.75
2022-12-31T07:49:30.461Z,8.82
2022-12-31T07:51:57.800Z,8.85
2022-12-31T07:54:24.272Z,8.92
2022-12-31T07:56:51.634Z,8.91
2022-12-31T07:59:30.528Z,8.94
2022-12-31T08:02:06.574Z,8.98
2022-12-31T08:04:36.229Z,8.97
2022-12-31T08:07:34.140Z,8.97
2022-12-31T08:10:17.784Z,8.99
2022-12-31T08:12:47.092Z,9.03
2022-12-31T08:15:16.293Z,9.09
2022-12-31T08:17:43.175Z,9.14
2022-12-31T08:20:15.040Z,9.16
2022-12-31T08:22:56.454Z,9.20
2022-12-31T08:25:30.536Z,9.20
2022-12-31T08:28:28.422Z,9.26
2022-12-31T08:31:02.001Z,9.24
2022-12-31T08:34:06.247Z,9.44
2022-12-31T08:36:57.351Z,9.31
2022-12-31T08:39:38.424Z,9.29
2022-12-31T08:42:23.790Z,9.34
2022-12-31T08:45:03.134Z,9.41
2022-12-31T08:47:46.412Z,9.45
2022-12-31T08:50:18.128Z,9.53
2022-12-31T08:52:45.328Z,9.62
2022-12-31T08:55:17.414Z,9.70
2022-12-31T08:58:05.170Z,9.71
2022-12-31T09:00:33.599Z,9.68
2022-12-31T09:03:18.470Z,9.72
2022-12-31T09:06:11.315Z,9.70
2022-12-31T09:09:06.208Z,9.79
2022-12-31T09:12:04.724Z,9.90
2022-12-31T09:14:49.362Z,9.92
2022-12-31T09:17:45.587Z,9.76
2022-12-31T09:20:36.365Z,9.78
2022-12-31T09:23:09.064Z,9.83
2022-12-31T09:25:42.182Z,9.80
2022-12-31T09:28:17.764Z,9.82
2022-12-31T09:31:08.629Z,9.91
2022-12-31T09:34:02.603Z,9.94
2022-12-31T09:36:39.235Z,10.02
2022-12-31T09:39:33.143Z,10.11
2022-12-31T09:42:25.251Z,10.19
2022-12-31T09:45:03.917Z,10.29
2022-12-31T09:47:52.255Z,10.35
2022-12-31T09:50:25.289Z,10.49
2022-12-31T09:52:51.580Z,10.55
2022-12-31T09:55:48.942Z,10.71
2022-12-31T09:58:24.683Z,10.75
2022-12-31T10:01:14.155Z,10.79
2022-12-31T10:04:09.620Z,10.91
2022-12-31T10:06:36.201Z,10.93
2022-12-31T10:09:20.756Z,10.99
2022-12-31T10:12:19.367Z,11.05
2022-12-31T10:15:23.318Z,11.04
2022-12-31T10:18:21.192Z,11.06
2022-12-31T10:20:50.796Z,11.08
2022-12-31T10:23:33.037Z,11.22
2022-12-31T10:26:25.004Z,11.48
2022-12-31T10:28:59.939Z,11.63
2022-12-31T10:31:41.341Z,11.78
2022-12-31T10:34:43.089Z,11.85
2022-12-31T10:37:13.913Z,11.91
2022-12-31T10:40:01.010Z,12.01
2022-12-31T10:43:14.158Z,11.96
2022-12-31T10:45:49.967Z,11.97
2022-12-31T10:48:40.681Z,12.04
2022-12-31T10:51:44.420Z,12.00
2022-12-31T10:54:32.806Z,12.00
2022-12-31T10:57:25.448Z,12.11
2022-12-31T11:00:00.921Z,12.26
2022-12-31T11:02:48.206Z,12.33
2022-12-31T11:05:59.096Z,12.39
2022-12-31T11:09:00.962Z,12.38
2022-12-31T11:11:51.636Z,12.38
2022-12-31T11:14:30.485Z,12.53
2022-12-31T11:17:18.637Z,12.59
2022-12-31T11:20:10.994Z,12.60
2022-12-31T11:22:51.143Z,12.63
2022-12-31T11:25:34.442Z,12.57
2022-12-31T11:28:22.447Z,12.47
2022-12-31T11:31:07.816Z,12.57
2022-12-31T11:33:51.009Z,12.60
2022-12-31T11:36:32.637Z,12.65
2022-12-31T11:39:15.474Z,12.73
2022-12-31T11:42:01.659Z,12.83
2022-12-31T11:44:55.816Z,12.91
2022-12-31T11:48:27.950Z,12.96
2022-12-31T11:50:49.893Z,12.99
2022-12-31T11:53:57.904Z,13.02
2022-12-31T11:56:28.304Z,13.11
2022-12-31T11:58:56.166Z,13.18
2022-12-31T12:02:10.407Z,13.14
2022-12-31T12:04:36.751Z,13.17
2022-12-31T12:07:03.101Z,13.19
2022-12-31T12:09:32.441Z,13.18
2022-12-31T12:12:05.077Z,13.21
2022-12-31T12:14:40.305Z,13.23
2022-12-31T12:17:09.925Z,13.29
2022-12-31T12:19:46.280Z,13.31
2022-12-31T12:22:21.130Z,13.24
2022-12-31T12:24:56.998Z,13.26
2022-12-31T12:27:28.650Z,13.29
2022-12-31T12:29:55.010Z,13.29
2022-12-31T12:32:27.242Z,13.31
2022-12-31T12:34:53.781Z,13.27
2022-12-31T12:37:35.092Z,13.32
2022-12-31T12:40:05.115Z,13.38
2022-12-31T12:42:32.042Z,13.38
2022-12-31T12:45:20.672Z,13.40
2022-12-31T12:47:51.034Z,13.46
2022-12-31T12:50:22.043Z,13.47
2022-12-31T12:53:12.432Z,13.46
2022-12-31T12:55:45.035Z,13.47
2022-12-31T12:58:36.477Z,13.47
2022-12-31T13:01:26.369Z,13.48
2022-12-31T13:04:33.850Z,13.51
2022-12-31T13:07:26.241Z,13.44
2022-12-31T13:10:06.919Z,13.44
2022-12-31T13:13:22.151Z,13.47
2022-12-31T13:16:14.249Z,13.43
2022-12-31T13:19:05.313Z,13.41
2022-12-31T13:21:41.915Z,13.38
2022-12-31T13:24:31.385Z,13.43
2022-12-31T13:27:08.518Z,13.40
2022-12-31T13:29:36.140Z,13.32
2022-12-31T13:32:05.602Z,13.34
2022-12-31T13:34:38.058Z,13.25
2022-12-31T13:37:27.188Z,13.17
2022-12-31T13:40:01.881Z,13.15
2022-12-31T13:42:32.579Z,13.09
2022-12-31T13:45:25.588Z,13.06
2022-12-31T13:48:06.966Z,12.98
2022-12-31T13:50:43.333Z,12.95
2022-12-31T13:53:27.570Z,12.95
2022-12-31T13:56:06.240Z,12.86
2022-12-31T13:58:45.419Z,12.81
2022-12-31T14:01:32.061Z,12.77
2022-12-31T14:04:04.636Z,12.64
2022-12-31T14:06:47.258Z,12.56
2022-12-31T14:09:21.898Z,12.52
2022-12-31T14:11:55.146Z,12.44
2022-12-31T14:14:48.800Z,12.44
2022-12-31T14:17:39.593Z,12.31
2022-12-31T14:20:44.524Z,12.29
2022-12-31T14:23:17.074Z,12.26
2022-12-31T14:26:27.767Z,12.09
2022-12-31T14:29:06.716Z,12.03
2022-12-31T14:31:51.717Z,11.97
2022-12-31T14:34:47.768Z,11.93
2022-12-31T14:37:32.840Z,11.90
2022-12-31T14:40:18.512Z,11.88
2022-12-31T14:43:00.813Z,11.88
2022-12-31T14:45:56.070Z,11.85
2022-12-31T14:48:29.186Z,11.84
2022-12-31T14:50:59.098Z,11.76
2022-12-31T14:53:27.345Z,11.67
2022-12-31T14:56:02.884Z,11.55
2022-12-31T14:58:42.394Z,11.47
2022-12-31T15:01:15.466Z,11.36
2022-12-31T15:03:45.723Z,11.28
2022-12-31T15:06:12.528Z,11.19
2022-12-31T15:09:02.455Z,11.10
2022-12-31T15:11:58.759Z,10.92
2022-12-31T15:14:38.093Z,10.72
2022-12-31T15:17:13.955Z,10.58
2022-12-31T15:19:58.968Z,10.51
2022-12-31T15:22:34.338Z,10.44
2022-12-31T15:25:01.578Z,10.37
2022-12-31T15:27:35.788Z,10.28
2022-12-31T15:30:04.676Z,10.16
2022-12-31T15:32:41.330Z,10.12
2022-12-31T15:35:23.381Z,10.11
2022-12-31T15:38:16.872Z,10.05
2022-12-31T15:40:46.264Z,9.96
2022-12-31T15:43:24.902Z,9.84
2022-12-31T15:45:54.326Z,9.73
2022-12-31T15:49:01.990Z,9.47
2022-12-31T15:51:37.342Z,9.24
2022-12-31T15:54:05.165Z,9.20
2022-12-31T15:56:34.653Z,9.36
2022-12-31T15:59:05.068Z,9.55
2022-12-31T16:01:36.588Z,9.51
2022-12-31T16:04:14.964Z,9.55
2022-12-31T16:06:44.929Z,9.48
2022-12-31T16:09:22.543Z,9.53
2022-12-31T16:11:50.005Z,9.46
2022-12-31T16:14:34.629Z,9.41
2022-12-31T16:17:01.695Z,9.35
2022-12-31T16:19:34.951Z,9.35
2022-12-31T16:22:08.179Z,9.27
2022-12-31T16:24:49.012Z,9.18
2022-12-31T16:27:22.838Z,9.08
2022-12-31T16:29:57.590Z,8.85
2022-12-31T16:32:23.836Z,8.62
2022-12-31T16:34:50.199Z,8.51
2022-12-31T16:37:21.819Z,8.44
2022-12-31T16:39:56.955Z,8.51
2022-12-31T16:42:25.161Z,8.84
2022-12-31T16:44:53.703Z,8.93
2022-12-31T16:47:27.587Z,9.01
2022-12-31T16:50:05.308Z,9.09
2022-12-31T16:52:40.909Z,9.08
2022-12-31T16:55:10.172Z,8.99
2022-12-31T16:57:37.153Z,9.02
2022-12-31T17:00:07.341Z,8.99
2022-12-31T17:02:39.187Z,9.01
2022-12-31T17:05:19.387Z,9.00
2022-12-31T17:07:45.716Z,9.07
2022-12-31T17:10:19.360Z,9.20
2022-12-31T17:13:27.391Z,9.16
2022-12-31T17:15:43.316Z,9.35
2022-12-31T17:18:20.491Z,9.26
2022-12-31T17:20:50.160Z,9.16
2022-12-31T17:23:28.967Z,9.09
2022-12-31T17:26:09.711Z,9.03
2022-12-31T17:28:44.865Z,8.95
2022-12-31T17:31:37.830Z,8.96
2022-12-31T17:34:12.102Z,9.01
2022-12-31T17:36:40.624Z,9.06
2022-12-31T17:39:22.855Z,9.00
2022-12-31T17:41:51.512Z,8.97
2022-12-31T17:44:24.224Z,8.98
2022-12-31T17:46:51.271Z,8.96
2022-12-31T17:49:21.684Z,8.86
2022-12-31T17:51:48.420Z,8.90
2022-12-31T17:54:16.127Z,8.98
2022-12-31T17:56:44.036Z,8.93
2022-12-31T17:59:16.566Z,8.93
2022-12-31T18:01:43.138Z,8.90
2022-12-31T18:04:14.539Z,8.86
2022-12-31T18:06:41.838Z,8.76
2022-12-31T18:09:08.380Z,8.70
2022-12-31T18:11:36.393Z,8.60
2022-12-31T18:14:03.766Z,8.68
2022-12-31T18:16:30.419Z,8.77
2022-12-31T18:18:59.227Z,8.89
2022-12-31T18:21:32.834Z,8.90
2022-12-31T18:26:26.774Z,8.75
2022-12-31T18:28:53.614Z,8.67
2022-12-31T18:31:23.227Z,8.61
2022-12-31T18:33:51.320Z,8.61
2022-12-31T18:36:19.529Z,8.63
2022-12-31T18:38:46.214Z,8.18
2022-12-31T18:41:23.421Z,8.23
2022-12-31T18:43:50.758Z,8.26
2022-12-31T18:46:19.973Z,8.17
2022-12-31T18:48:46.832Z,8.30
2022-12-31T18:51:18.692Z,8.49
2022-12-31T18:53:45.575Z,8.52
2022-12-31T18:56:14.324Z,8.62
2022-12-31T18:58:41.593Z,8.61
2022-12-31T19:01:35.302Z,8.59
2022-12-31T19:04:04.555Z,8.56
2022-12-31T19:06:31.072Z,8.59
2022-12-31T19:08:59.169Z,8.67
2022-12-31T19:11:27.334Z,8.65
2022-12-31T19:13:53.660Z,8.66
2022-12-31T19:16:20.510Z,8.64
2022-12-31T19:18:47.511Z,8.62
2022-12-31T19:21:18.974Z,8.54
2022-12-31T19:23:46.136Z,8.50
2022-12-31T19:26:15.732Z,8.47
2022-12-31T19:28:42.952Z,8.51
2022-12-31T19:31:09.670Z,8.51
2022-12-31T19:33:36.436Z,8.39
2022-12-31T19:36:03.146Z,8.31
2022-12-31T19:38:31.980Z,8.29
2022-12-31T19:40:59.455Z,8.24
2022-12-31T19:43:25.891Z,8.26
2022-12-31T19:45:53.146Z,8.26
2022-12-31T19:48:25.800Z,8.29
2022-12-31T19:50:56.757Z,8.24
2022-12-31T19:53:26.329Z,8.21
2022-12-31T19:55:53.556Z,8.13
2022-12-31T19:58:22.393Z,8.05
2022-12-31T20:00:54.804Z,7.96
2022-12-31T20:03:23.637Z,7.78
2022-12-31T20:05:50.679Z,7.80
2022-12-31T20:08:20.125Z,7.78
2022-12-31T20:10:46.519Z,7.77
2022-12-31T20:13:13.398Z,7.69
2022-12-31T20:15:40.311Z,7.63
2022-12-31T20:18:06.644Z,7.57
2022-12-31T20:20:33.432Z,7.35
2022-12-31T20:22:59.860Z,7.28
2022-12-31T20:25:26.286Z,7.20
2022-12-31T20:27:54.627Z,7.14
2022-12-31T20:30:22.835Z,7.10
2022-12-31T20:32:51.977Z,6.94
2022-12-31T20:35:19.392Z,6.92
2022-12-31T20:37:46.032Z,6.87
2022-12-31T20:40:12.861Z,6.71
2022-12-31T20:42:40.865Z,6.47
2022-12-31T20:45:09.175Z,6.32
2022-12-31T20:47:35.812Z,6.12
2022-12-31T20:50:17.801Z,6.01
2022-12-31T20:52:44.856Z,5.91
2022-12-31T20:55:13.750Z,5.88
2022-12-31T20:57:40.723Z,5.85
2022-12-31T21:00:08.359Z,5.83
2022-12-31T21:02:42.275Z,5.86
2022-12-31T21:05:10.152Z,5.68
2022-12-31T21:07:36.588Z,5.83
2022-12-31T21:10:03.327Z,5.97
2022-12-31T21:12:55.886Z,5.99
2022-12-31T21:15:22.276Z,6.26
2022-12-31T21:17:48.630Z,6.78
2022-12-31T21:20:15.419Z,6.97
2022-12-31T21:22:41.802Z,6.87
2022-12-31T21:25:10.113Z,6.93
2022-12-31T21:27:36.488Z,6.50
2022-12-31T21:30:19.807Z,6.38
2022-12-31T21:32:47.012Z,6.27
2022-12-31T21:38:05.076Z,6.39
2022-12-31T21:40:32.034Z,6.49
2022-12-31T21:42:59.625Z,6.40
2022-12-31T21:45:26.499Z,6.55
2022-12-31T21:48:11.180Z,6.63
2022-12-31T21:50:37.994Z,6.73
2022-12-31T21:53:04.362Z,6.82
2022-12-31T21:55:49.712Z,6.94
2022-12-31T21:58:31.982Z,6.96
2022-12-31T22:01:18.592Z,6.91
2022-12-31T22:03:45.338Z,6.95
2022-12-31T22:06:22.302Z,6.87
2022-12-31T22:08:55.009Z,6.75
2022-12-31T22:11:24.230Z,6.73
2022-12-31T22:13:51.417Z,6.63
2022-12-31T22:16:20.304Z,6.55
2022-12-31T22:18:47.997Z,6.71
2022-12-31T22:21:21.277Z,6.91
2022-12-31T22:23:50.163Z,7.04
2022-12-31T22:26:18.923Z,6.98
2022-12-31T22:28:46.499Z,6.81
2022-12-31T22:31:15.492Z,6.98
2022-12-31T22:33:42.394Z,7.45
2022-12-31T22:36:12.928Z,7.49
2022-12-31T22:38:39.299Z,7.44
2022-12-31T22:41:06.925Z,7.26
2022-12-31T22:43:36.197Z,6.96
2022-12-31T22:46:26.268Z,6.70
2022-12-31T22:48:56.892Z,6.66
2022-12-31T22:51:23.236Z,6.56
2022-12-31T22:53:49.568Z,6.40
2022-12-31T22:56:19.060Z,6.30
2022-12-31T22:58:46.077Z,6.03
2022-12-31T23:01:19.820Z,5.84
2022-12-31T23:03:47.276Z,5.73
2022-12-31T23:06:14.049Z,5.66
2022-12-31T23:08:41.085Z,5.64
2022-12-31T23:11:09.551Z,5.58
2022-12-31T23:13:59.143Z,5.53
2022-12-31T23:16:45.935Z,5.49
2022-12-31T23:19:31.609Z,5.31
2022-12-31T23:22:16.737Z,5.23
2022-12-31T23:24:43.661Z,5.14
2022-12-31T23:27:11.203Z,5.09
2022-12-31T23:29:46.685Z,5.07
2022-12-31T23:32:18.424Z,4.84
2022-12-31T23:34:46.980Z,4.90
2022-12-31T23:37:15.038Z,4.77
2022-12-31T23:39:42.525Z,4.75
2022-12-31T23:42:08.900Z,4.84
2022-12-31T23:44:35.264Z,4.62
2022-12-31T23:47:01.970Z,4.66
2022-12-31T23:49:28.304Z,4.75
2022-12-31T23:51:54.652Z,4.90
2022-12-31T23:54:21.405Z,4.87
2022-12-31T23:56:47.760Z,4.93
2022-12-31T23:59:14.082Z,4.95
